Aviation Digital Data Service (ADDS)

Output produced by METARs form (1538 UTC 20 May 2018)
found at http://aviationweather.gov/adds/metars/
 
KIAG 201505Z 2015/2112 30008KT P6SM BKN015 
     FM201700 31008KT P6SM BKN025 
     FM202000 31008KT P6SM SCT200 
     FM210000 28004KT P6SM FEW040 
     FM210400 31004KT P6SM FEW250 
     FM210500 VRB03KT P6SM SKC